sensor_id;sensor_type;location;lat;lon;timestamp;P1;durP1;ratioP1;P2;durP2;ratioP2
20970;SDS011;10644;48.834;10.088;2022-10-22T00:04:49;10.53;;;5.70;;
20970;SDS011;10644;48.834;10.088;2022-10-22T00:09:45;8.03;;;5.60;;
20970;SDS011;10644;48.834;10.088;2022-10-22T00:14:45;5.87;;;3.10;;
20970;SDS011;10644;48.834;10.088;2022-10-22T00:17:19;5.43;;;2.57;;
20970;SDS011;10644;48.834;10.088;2022-10-22T00:25:33;5.57;;;2.80;;
20970;SDS011;10644;48.834;10.088;2022-10-22T00:28:16;3.90;;;2.50;;
20970;SDS011;10644;48.834;10.088;2022-10-22T00:39:46;3.47;;;2.00;;
20970;SDS011;10644;48.834;10.088;2022-10-22T00:47:43;4.33;;;2.00;;
20970;SDS011;10644;48.834;10.088;2022-10-22T00:50:26;3.63;;;1.83;;
20970;SDS011;10644;48.834;10.088;2022-10-22T00:53:07;3.60;;;1.77;;
20970;SDS011;10644;48.834;10.088;2022-10-22T00:55:37;2.50;;;1.87;;
20970;SDS011;10644;48.834;10.088;2022-10-22T00:58:09;6.13;;;2.20;;
20970;SDS011;10644;48.834;10.088;2022-10-22T01:00:47;4.53;;;2.10;;
20970;SDS011;10644;48.834;10.088;2022-10-22T01:03:23;2.80;;;2.37;;
20970;SDS011;10644;48.834;10.088;2022-10-22T01:17:49;1.97;;;1.87;;
20970;SDS011;10644;48.834;10.088;2022-10-22T01:30:05;2.00;;;1.50;;
20970;SDS011;10644;48.834;10.088;2022-10-22T01:41:32;1.20;;;1.10;;
20970;SDS011;10644;48.834;10.088;2022-10-22T01:44:21;2.13;;;1.20;;
20970;SDS011;10644;48.834;10.088;2022-10-22T01:49:57;1.40;;;1.20;;
20970;SDS011;10644;48.834;10.088;2022-10-22T02:05:14;5.33;;;1.50;;
20970;SDS011;10644;48.834;10.088;2022-10-22T02:10:53;2.10;;;1.00;;
20970;SDS011;10644;48.834;10.088;2022-10-22T02:16:27;4.63;;;1.30;;
20970;SDS011;10644;48.834;10.088;2022-10-22T02:19:03;2.17;;;1.43;;
20970;SDS011;10644;48.834;10.088;2022-10-22T02:21:35;1.20;;;1.10;;
20970;SDS011;10644;48.834;10.088;2022-10-22T02:24:14;1.77;;;1.00;;
20970;SDS011;10644;48.834;10.088;2022-10-22T02:38:45;1.63;;;0.90;;
20970;SDS011;10644;48.834;10.088;2022-10-22T02:41:14;6.70;;;1.17;;
20970;SDS011;10644;48.834;10.088;2022-10-22T02:43:56;7.90;;;1.30;;
20970;SDS011;10644;48.834;10.088;2022-10-22T02:46:27;4.20;;;1.20;;
20970;SDS011;10644;48.834;10.088;2022-10-22T02:48:53;3.17;;;0.93;;
20970;SDS011;10644;48.834;10.088;2022-10-22T02:51:27;2.03;;;1.13;;
20970;SDS011;10644;48.834;10.088;2022-10-22T02:53:53;1.30;;;1.07;;
20970;SDS011;10644;48.834;10.088;2022-10-22T02:56:19;1.73;;;0.80;;
20970;SDS011;10644;48.834;10.088;2022-10-22T02:58:49;2.60;;;0.97;;
20970;SDS011;10644;48.834;10.088;2022-10-22T03:01:14;1.30;;;0.83;;
20970;SDS011;10644;48.834;10.088;2022-10-22T03:03:39;2.63;;;1.20;;
20970;SDS011;10644;48.834;10.088;2022-10-22T03:09:26;6.07;;;1.13;;
20970;SDS011;10644;48.834;10.088;2022-10-22T03:11:54;1.47;;;0.90;;
20970;SDS011;10644;48.834;10.088;2022-10-22T03:14:19;2.07;;;0.80;;
20970;SDS011;10644;48.834;10.088;2022-10-22T03:16:47;2.20;;;1.30;;
20970;SDS011;10644;48.834;10.088;2022-10-22T03:19:13;1.90;;;0.90;;
20970;SDS011;10644;48.834;10.088;2022-10-22T03:21:47;2.17;;;1.20;;
20970;SDS011;10644;48.834;10.088;2022-10-22T03:24:17;3.80;;;1.33;;
20970;SDS011;10644;48.834;10.088;2022-10-22T03:27:06;2.30;;;1.20;;
20970;SDS011;10644;48.834;10.088;2022-10-22T03:29:42;4.70;;;2.10;;
20970;SDS011;10644;48.834;10.088;2022-10-22T03:32:26;18.27;;;7.17;;
20970;SDS011;10644;48.834;10.088;2022-10-22T03:35:01;9.37;;;3.90;;
20970;SDS011;10644;48.834;10.088;2022-10-22T03:40:33;7.77;;;3.37;;
20970;SDS011;10644;48.834;10.088;2022-10-22T03:43:04;4.10;;;2.17;;
20970;SDS011;10644;48.834;10.088;2022-10-22T03:53:39;1.97;;;0.90;;
20970;SDS011;10644;48.834;10.088;2022-10-22T03:58:43;1.33;;;1.17;;
20970;SDS011;10644;48.834;10.088;2022-10-22T04:01:28;2.07;;;1.00;;
20970;SDS011;10644;48.834;10.088;2022-10-22T04:04:07;2.07;;;0.90;;
20970;SDS011;10644;48.834;10.088;2022-10-22T04:06:33;4.40;;;0.80;;
20970;SDS011;10644;48.834;10.088;2022-10-22T04:11:51;1.63;;;0.70;;
20970;SDS011;10644;48.834;10.088;2022-10-22T04:14:21;1.20;;;0.90;;
20970;SDS011;10644;48.834;10.088;2022-10-22T04:16:56;4.57;;;1.00;;
20970;SDS011;10644;48.834;10.088;2022-10-22T04:19:30;4.10;;;0.97;;
20970;SDS011;10644;48.834;10.088;2022-10-22T04:21:57;2.27;;;0.80;;
20970;SDS011;10644;48.834;10.088;2022-10-22T04:27:48;3.00;;;0.93;;
20970;SDS011;10644;48.834;10.088;2022-10-22T04:30:13;1.80;;;0.87;;
20970;SDS011;10644;48.834;10.088;2022-10-22T04:32:41;1.33;;;0.77;;
20970;SDS011;10644;48.834;10.088;2022-10-22T04:35:06;3.40;;;0.80;;
20970;SDS011;10644;48.834;10.088;2022-10-22T04:37:38;3.80;;;1.20;;
20970;SDS011;10644;48.834;10.088;2022-10-22T04:40:03;1.77;;;0.90;;
20970;SDS011;10644;48.834;10.088;2022-10-22T04:42:34;12.37;;;0.90;;
20970;SDS011;10644;48.834;10.088;2022-10-22T04:44:59;2.07;;;0.90;;
20970;SDS011;10644;48.834;10.088;2022-10-22T04:47:25;2.93;;;0.97;;
20970;SDS011;10644;48.834;10.088;2022-10-22T04:49:50;1.73;;;1.10;;
20970;SDS011;10644;48.834;10.088;2022-10-22T04:52:18;1.67;;;0.90;;
20970;SDS011;10644;48.834;10.088;2022-10-22T04:54:44;1.27;;;0.87;;
20970;SDS011;10644;48.834;10.088;2022-10-22T05:05:41;2.03;;;1.00;;
20970;SDS011;10644;48.834;10.088;2022-10-22T05:08:07;6.20;;;0.90;;
20970;SDS011;10644;48.834;10.088;2022-10-22T05:10:32;2.80;;;1.10;;
20970;SDS011;10644;48.834;10.088;2022-10-22T05:19:01;2.10;;;1.20;;
20970;SDS011;10644;48.834;10.088;2022-10-22T05:21:27;3.40;;;1.30;;
20970;SDS011;10644;48.834;10.088;2022-10-22T05:23:57;4.33;;;1.20;;
20970;SDS011;10644;48.834;10.088;2022-10-22T05:26:28;1.70;;;1.03;;
20970;SDS011;10644;48.834;10.088;2022-10-22T05:29:01;4.03;;;1.23;;
20970;SDS011;10644;48.834;10.088;2022-10-22T05:31:26;1.30;;;0.90;;
20970;SDS011;10644;48.834;10.088;2022-10-22T05:34:11;10.00;;;1.43;;
20970;SDS011;10644;48.834;10.088;2022-10-22T05:36:46;1.73;;;1.10;;
20970;SDS011;10644;48.834;10.088;2022-10-22T05:39:25;2.27;;;1.37;;
20970;SDS011;10644;48.834;10.088;2022-10-22T05:44:39;4.20;;;2.13;;
20970;SDS011;10644;48.834;10.088;2022-10-22T05:47:04;9.57;;;5.07;;
20970;SDS011;10644;48.834;10.088;2022-10-22T05:49:33;7.97;;;5.33;;
20970;SDS011;10644;48.834;10.088;2022-10-22T05:51:59;3.77;;;1.67;;
20970;SDS011;10644;48.834;10.088;2022-10-22T05:54:27;4.07;;;1.37;;
20970;SDS011;10644;48.834;10.088;2022-10-22T06:02:56;6.70;;;1.20;;
20970;SDS011;10644;48.834;10.088;2022-10-22T06:05:23;5.07;;;1.17;;
20970;SDS011;10644;48.834;10.088;2022-10-22T06:08:08;2.60;;;1.10;;
20970;SDS011;10644;48.834;10.088;2022-10-22T06:10:47;4.07;;;1.13;;
20970;SDS011;10644;48.834;10.088;2022-10-22T06:13:14;2.47;;;1.10;;
20970;SDS011;10644;48.834;10.088;2022-10-22T06:15:42;2.90;;;1.10;;
20970;SDS011;10644;48.834;10.088;2022-10-22T06:18:07;2.07;;;1.27;;
20970;SDS011;10644;48.834;10.088;2022-10-22T06:20:33;2.83;;;1.60;;
20970;SDS011;10644;48.834;10.088;2022-10-22T06:23:05;6.33;;;2.47;;
20970;SDS011;10644;48.834;10.088;2022-10-22T06:25:33;6.70;;;1.70;;
20970;SDS011;10644;48.834;10.088;2022-10-22T06:28:05;3.30;;;1.20;;
20970;SDS011;10644;48.834;10.088;2022-10-22T06:30:30;6.40;;;1.43;;
20970;SDS011;10644;48.834;10.088;2022-10-22T06:33:02;3.50;;;1.40;;
20970;SDS011;10644;48.834;10.088;2022-10-22T06:35:45;2.33;;;1.33;;
20970;SDS011;10644;48.834;10.088;2022-10-22T06:41:01;4.43;;;2.10;;
20970;SDS011;10644;48.834;10.088;2022-10-22T06:43:30;10.23;;;2.23;;
20970;SDS011;10644;48.834;10.088;2022-10-22T06:45:59;8.53;;;2.80;;
20970;SDS011;10644;48.834;10.088;2022-10-22T06:51:25;10.23;;;3.80;;
20970;SDS011;10644;48.834;10.088;2022-10-22T06:53:54;22.93;;;3.47;;
20970;SDS011;10644;48.834;10.088;2022-10-22T06:58:57;4.83;;;2.23;;
20970;SDS011;10644;48.834;10.088;2022-10-22T07:01:40;19.87;;;3.50;;
20970;SDS011;10644;48.834;10.088;2022-10-22T07:04:06;11.50;;;2.60;;
20970;SDS011;10644;48.834;10.088;2022-10-22T07:09:22;13.57;;;2.70;;
20970;SDS011;10644;48.834;10.088;2022-10-22T07:11:49;6.50;;;2.37;;
20970;SDS011;10644;48.834;10.088;2022-10-22T07:14:15;6.20;;;2.03;;
20970;SDS011;10644;48.834;10.088;2022-10-22T07:19:13;6.93;;;2.20;;
20970;SDS011;10644;48.834;10.088;2022-10-22T07:21:41;4.33;;;2.40;;
20970;SDS011;10644;48.834;10.088;2022-10-22T07:24:21;6.30;;;2.70;;
20970;SDS011;10644;48.834;10.088;2022-10-22T07:26:50;8.23;;;3.37;;
20970;SDS011;10644;48.834;10.088;2022-10-22T07:29:15;11.53;;;3.27;;
20970;SDS011;10644;48.834;10.088;2022-10-22T07:31:43;5.87;;;2.83;;
20970;SDS011;10644;48.834;10.088;2022-10-22T07:34:15;13.83;;;3.60;;
20970;SDS011;10644;48.834;10.088;2022-10-22T07:36:43;19.50;;;3.97;;
20970;SDS011;10644;48.834;10.088;2022-10-22T07:39:08;14.13;;;3.23;;
20970;SDS011;10644;48.834;10.088;2022-10-22T07:41:38;9.50;;;2.87;;
20970;SDS011;10644;48.834;10.088;2022-10-22T07:46:55;6.80;;;2.97;;
20970;SDS011;10644;48.834;10.088;2022-10-22T07:52:16;5.17;;;2.77;;
20970;SDS011;10644;48.834;10.088;2022-10-22T07:54:53;7.40;;;2.80;;
20970;SDS011;10644;48.834;10.088;2022-10-22T07:59:59;7.97;;;2.63;;
20970;SDS011;10644;48.834;10.088;2022-10-22T08:05:12;40.20;;;4.00;;
20970;SDS011;10644;48.834;10.088;2022-10-22T08:07:42;8.60;;;3.20;;
20970;SDS011;10644;48.834;10.088;2022-10-22T08:10:10;3.03;;;1.70;;
20970;SDS011;10644;48.834;10.088;2022-10-22T08:12:46;2.57;;;1.70;;
20970;SDS011;10644;48.834;10.088;2022-10-22T08:15:15;5.93;;;1.77;;
20970;SDS011;10644;48.834;10.088;2022-10-22T08:17:49;2.97;;;1.57;;
20970;SDS011;10644;48.834;10.088;2022-10-22T08:20:32;7.50;;;2.60;;
20970;SDS011;10644;48.834;10.088;2022-10-22T08:23:04;20.13;;;4.17;;
20970;SDS011;10644;48.834;10.088;2022-10-22T08:25:30;24.97;;;5.90;;
20970;SDS011;10644;48.834;10.088;2022-10-22T08:28:04;12.77;;;3.47;;
20970;SDS011;10644;48.834;10.088;2022-10-22T08:30:36;14.50;;;3.03;;
20970;SDS011;10644;48.834;10.088;2022-10-22T08:33:04;8.20;;;1.60;;
20970;SDS011;10644;48.834;10.088;2022-10-22T08:35:32;15.50;;;2.03;;
20970;SDS011;10644;48.834;10.088;2022-10-22T08:37:57;11.37;;;2.00;;
20970;SDS011;10644;48.834;10.088;2022-10-22T08:40:28;7.40;;;1.70;;
20970;SDS011;10644;48.834;10.088;2022-10-22T08:49:16;5.67;;;1.30;;
20970;SDS011;10644;48.834;10.088;2022-10-22T09:09:11;10.77;;;1.27;;
20970;SDS011;10644;48.834;10.088;2022-10-22T09:11:45;2.20;;;1.00;;
20970;SDS011;10644;48.834;10.088;2022-10-22T09:17:20;1.90;;;1.10;;
20970;SDS011;10644;48.834;10.088;2022-10-22T09:26:01;2.53;;;1.20;;
20970;SDS011;10644;48.834;10.088;2022-10-22T09:28:50;1.50;;;1.20;;
20970;SDS011;10644;48.834;10.088;2022-10-22T09:31:26;5.40;;;1.70;;
20970;SDS011;10644;48.834;10.088;2022-10-22T09:33:55;2.90;;;0.90;;
20970;SDS011;10644;48.834;10.088;2022-10-22T09:42:14;1.50;;;1.00;;
20970;SDS011;10644;48.834;10.088;2022-10-22T09:44:50;1.43;;;0.73;;
20970;SDS011;10644;48.834;10.088;2022-10-22T09:50:47;1.10;;;1.00;;
20970;SDS011;10644;48.834;10.088;2022-10-22T09:53:21;4.23;;;1.30;;
20970;SDS011;10644;48.834;10.088;2022-10-22T09:55:52;2.60;;;1.13;;
20970;SDS011;10644;48.834;10.088;2022-10-22T09:58:19;1.97;;;1.40;;
20970;SDS011;10644;48.834;10.088;2022-10-22T10:00:51;2.70;;;1.17;;
20970;SDS011;10644;48.834;10.088;2022-10-22T10:06:11;1.70;;;1.20;;
20970;SDS011;10644;48.834;10.088;2022-10-22T10:08:42;1.63;;;1.00;;
20970;SDS011;10644;48.834;10.088;2022-10-22T10:26:08;2.90;;;1.10;;
20970;SDS011;10644;48.834;10.088;2022-10-22T10:37:54;2.90;;;1.10;;
20970;SDS011;10644;48.834;10.088;2022-10-22T10:40:43;1.37;;;0.90;;
20970;SDS011;10644;48.834;10.088;2022-10-22T10:43:20;3.20;;;1.13;;
20970;SDS011;10644;48.834;10.088;2022-10-22T10:57:56;4.90;;;1.40;;
20970;SDS011;10644;48.834;10.088;2022-10-22T11:23:31;3.20;;;0.83;;
20970;SDS011;10644;48.834;10.088;2022-10-22T11:29:29;1.50;;;1.10;;
20970;SDS011;10644;48.834;10.088;2022-10-22T11:34:52;3.43;;;1.37;;
20970;SDS011;10644;48.834;10.088;2022-10-22T11:38:03;3.70;;;1.67;;
20970;SDS011;10644;48.834;10.088;2022-10-22T11:43:57;2.70;;;1.43;;
20970;SDS011;10644;48.834;10.088;2022-10-22T11:52:26;2.43;;;1.33;;
20970;SDS011;10644;48.834;10.088;2022-10-22T11:55:26;2.90;;;1.27;;
20970;SDS011;10644;48.834;10.088;2022-10-22T11:58:38;5.73;;;1.30;;
20970;SDS011;10644;48.834;10.088;2022-10-22T12:09:52;3.80;;;0.93;;
20970;SDS011;10644;48.834;10.088;2022-10-22T12:12:22;2.27;;;1.77;;
20970;SDS011;10644;48.834;10.088;2022-10-22T12:17:21;1.00;;;0.80;;
20970;SDS011;10644;48.834;10.088;2022-10-22T12:25:24;1.20;;;0.97;;
20970;SDS011;10644;48.834;10.088;2022-10-22T12:27:55;3.20;;;1.30;;
20970;SDS011;10644;48.834;10.088;2022-10-22T12:30:25;2.87;;;0.90;;
20970;SDS011;10644;48.834;10.088;2022-10-22T12:32:59;3.10;;;1.10;;
20970;SDS011;10644;48.834;10.088;2022-10-22T12:35:33;4.13;;;0.87;;
20970;SDS011;10644;48.834;10.088;2022-10-22T12:38:13;1.87;;;0.90;;
20970;SDS011;10644;48.834;10.088;2022-10-22T12:40:41;3.23;;;1.30;;
20970;SDS011;10644;48.834;10.088;2022-10-22T12:43:16;3.70;;;1.20;;
20970;SDS011;10644;48.834;10.088;2022-10-22T12:45:50;3.20;;;0.70;;
20970;SDS011;10644;48.834;10.088;2022-10-22T12:51:18;7.30;;;1.50;;
20970;SDS011;10644;48.834;10.088;2022-10-22T12:57:08;1.53;;;1.00;;
20970;SDS011;10644;48.834;10.088;2022-10-22T13:02:36;1.53;;;0.97;;
20970;SDS011;10644;48.834;10.088;2022-10-22T13:11:06;1.93;;;1.13;;
20970;SDS011;10644;48.834;10.088;2022-10-22T13:16:17;2.60;;;1.03;;
20970;SDS011;10644;48.834;10.088;2022-10-22T13:21:54;10.80;;;1.40;;
20970;SDS011;10644;48.834;10.088;2022-10-22T13:24:26;2.80;;;0.80;;
20970;SDS011;10644;48.834;10.088;2022-10-22T13:27:00;4.80;;;1.00;;
20970;SDS011;10644;48.834;10.088;2022-10-22T13:29:28;3.00;;;0.90;;
20970;SDS011;10644;48.834;10.088;2022-10-22T13:31:55;1.97;;;0.97;;
20970;SDS011;10644;48.834;10.088;2022-10-22T13:34:23;1.93;;;1.17;;
20970;SDS011;10644;48.834;10.088;2022-10-22T13:37:04;2.80;;;1.33;;
20970;SDS011;10644;48.834;10.088;2022-10-22T13:39:39;2.90;;;1.00;;
20970;SDS011;10644;48.834;10.088;2022-10-22T13:47:27;2.97;;;1.03;;
20970;SDS011;10644;48.834;10.088;2022-10-22T13:52:46;1.73;;;1.00;;
20970;SDS011;10644;48.834;10.088;2022-10-22T13:55:18;3.87;;;1.00;;
20970;SDS011;10644;48.834;10.088;2022-10-22T13:58:02;3.03;;;1.10;;
20970;SDS011;10644;48.834;10.088;2022-10-22T14:00:42;1.60;;;0.80;;
20970;SDS011;10644;48.834;10.088;2022-10-22T14:03:11;1.80;;;1.00;;
20970;SDS011;10644;48.834;10.088;2022-10-22T14:05:48;2.27;;;1.10;;
20970;SDS011;10644;48.834;10.088;2022-10-22T14:08:18;3.67;;;1.23;;
20970;SDS011;10644;48.834;10.088;2022-10-22T14:13:48;1.97;;;1.00;;
20970;SDS011;10644;48.834;10.088;2022-10-22T14:16:16;4.17;;;1.27;;
20970;SDS011;10644;48.834;10.088;2022-10-22T14:18:44;2.03;;;1.23;;
20970;SDS011;10644;48.834;10.088;2022-10-22T14:21:18;6.17;;;1.13;;
20970;SDS011;10644;48.834;10.088;2022-10-22T14:23:46;3.43;;;1.23;;
20970;SDS011;10644;48.834;10.088;2022-10-22T14:26:26;1.37;;;0.93;;
20970;SDS011;10644;48.834;10.088;2022-10-22T14:29:10;4.10;;;1.60;;
20970;SDS011;10644;48.834;10.088;2022-10-22T14:31:42;2.00;;;1.10;;
20970;SDS011;10644;48.834;10.088;2022-10-22T14:34:17;2.30;;;1.40;;
20970;SDS011;10644;48.834;10.088;2022-10-22T14:36:49;4.27;;;1.73;;
20970;SDS011;10644;48.834;10.088;2022-10-22T14:39:21;2.67;;;1.80;;
20970;SDS011;10644;48.834;10.088;2022-10-22T14:41:47;6.50;;;1.10;;
20970;SDS011;10644;48.834;10.088;2022-10-22T14:44:14;5.50;;;1.00;;
20970;SDS011;10644;48.834;10.088;2022-10-22T14:46:50;3.87;;;1.00;;
20970;SDS011;10644;48.834;10.088;2022-10-22T14:49:20;2.13;;;1.10;;
20970;SDS011;10644;48.834;10.088;2022-10-22T14:51:46;2.20;;;1.00;;
20970;SDS011;10644;48.834;10.088;2022-10-22T14:54:13;2.73;;;1.23;;
20970;SDS011;10644;48.834;10.088;2022-10-22T14:56:40;3.83;;;1.23;;
20970;SDS011;10644;48.834;10.088;2022-10-22T15:02:13;3.37;;;1.20;;
20970;SDS011;10644;48.834;10.088;2022-10-22T15:04:48;3.30;;;1.40;;
20970;SDS011;10644;48.834;10.088;2022-10-22T15:07:23;2.63;;;0.90;;
20970;SDS011;10644;48.834;10.088;2022-10-22T15:09:54;7.13;;;1.73;;
20970;SDS011;10644;48.834;10.088;2022-10-22T15:12:21;9.00;;;1.63;;
20970;SDS011;10644;48.834;10.088;2022-10-22T15:17:27;1.40;;;1.00;;
20970;SDS011;10644;48.834;10.088;2022-10-22T15:22:50;5.57;;;1.23;;
20970;SDS011;10644;48.834;10.088;2022-10-22T15:25:16;2.60;;;1.30;;
20970;SDS011;10644;48.834;10.088;2022-10-22T15:27:46;2.50;;;0.90;;
20970;SDS011;10644;48.834;10.088;2022-10-22T15:32:52;5.33;;;1.17;;
20970;SDS011;10644;48.834;10.088;2022-10-22T15:35:19;1.83;;;1.13;;
20970;SDS011;10644;48.834;10.088;2022-10-22T15:37:51;2.33;;;1.10;;
20970;SDS011;10644;48.834;10.088;2022-10-22T15:42:56;1.53;;;1.00;;
20970;SDS011;10644;48.834;10.088;2022-10-22T15:45:37;4.00;;;0.90;;
20970;SDS011;10644;48.834;10.088;2022-10-22T15:48:03;7.37;;;1.70;;
20970;SDS011;10644;48.834;10.088;2022-10-22T15:50:43;1.77;;;0.90;;
20970;SDS011;10644;48.834;10.088;2022-10-22T15:53:19;1.87;;;0.90;;
20970;SDS011;10644;48.834;10.088;2022-10-22T15:55:47;6.50;;;1.10;;
20970;SDS011;10644;48.834;10.088;2022-10-22T16:06:29;4.43;;;1.63;;
20970;SDS011;10644;48.834;10.088;2022-10-22T16:09:16;3.13;;;1.20;;
20970;SDS011;10644;48.834;10.088;2022-10-22T16:11:45;3.43;;;1.10;;
20970;SDS011;10644;48.834;10.088;2022-10-22T16:14:20;6.20;;;1.10;;
20970;SDS011;10644;48.834;10.088;2022-10-22T16:16:58;4.87;;;1.53;;
20970;SDS011;10644;48.834;10.088;2022-10-22T16:19:23;8.40;;;3.00;;
20970;SDS011;10644;48.834;10.088;2022-10-22T16:21:52;16.53;;;5.03;;
20970;SDS011;10644;48.834;10.088;2022-10-22T16:24:31;10.00;;;3.60;;
20970;SDS011;10644;48.834;10.088;2022-10-22T16:26:56;5.70;;;2.40;;
20970;SDS011;10644;48.834;10.088;2022-10-22T16:29:23;6.50;;;3.00;;
20970;SDS011;10644;48.834;10.088;2022-10-22T16:31:51;6.60;;;2.43;;
20970;SDS011;10644;48.834;10.088;2022-10-22T16:34:16;7.17;;;3.10;;
20970;SDS011;10644;48.834;10.088;2022-10-22T16:36:46;5.93;;;3.07;;
20970;SDS011;10644;48.834;10.088;2022-10-22T16:39:16;6.07;;;2.20;;
20970;SDS011;10644;48.834;10.088;2022-10-22T16:41:43;10.73;;;3.50;;
20970;SDS011;10644;48.834;10.088;2022-10-22T16:44:08;4.30;;;2.37;;
20970;SDS011;10644;48.834;10.088;2022-10-22T16:46:41;8.33;;;3.00;;
20970;SDS011;10644;48.834;10.088;2022-10-22T16:49:12;8.30;;;2.47;;
20970;SDS011;10644;48.834;10.088;2022-10-22T16:51:37;7.90;;;3.10;;
20970;SDS011;10644;48.834;10.088;2022-10-22T16:54:10;6.50;;;2.70;;
20970;SDS011;10644;48.834;10.088;2022-10-22T16:56:39;4.27;;;2.57;;
20970;SDS011;10644;48.834;10.088;2022-10-22T16:59:05;8.23;;;3.07;;
20970;SDS011;10644;48.834;10.088;2022-10-22T17:01:38;6.57;;;2.77;;
20970;SDS011;10644;48.834;10.088;2022-10-22T17:12:50;8.23;;;3.30;;
20970;SDS011;10644;48.834;10.088;2022-10-22T17:15:25;6.70;;;3.10;;
20970;SDS011;10644;48.834;10.088;2022-10-22T17:18:08;15.77;;;3.97;;
20970;SDS011;10644;48.834;10.088;2022-10-22T17:20:41;6.70;;;3.80;;
20970;SDS011;10644;48.834;10.088;2022-10-22T17:23:17;9.93;;;4.77;;
20970;SDS011;10644;48.834;10.088;2022-10-22T17:25:47;10.23;;;3.97;;
20970;SDS011;10644;48.834;10.088;2022-10-22T17:31:05;7.30;;;4.40;;
20970;SDS011;10644;48.834;10.088;2022-10-22T17:33:33;12.33;;;5.57;;
20970;SDS011;10644;48.834;10.088;2022-10-22T17:36:05;15.00;;;4.97;;
20970;SDS011;10644;48.834;10.088;2022-10-22T17:38:34;20.87;;;4.07;;
20970;SDS011;10644;48.834;10.088;2022-10-22T17:44:00;15.63;;;6.03;;
20970;SDS011;10644;48.834;10.088;2022-10-22T17:51:59;27.83;;;10.67;;
20970;SDS011;10644;48.834;10.088;2022-10-22T17:54:29;14.63;;;5.97;;
20970;SDS011;10644;48.834;10.088;2022-10-22T17:56:56;13.40;;;5.10;;
20970;SDS011;10644;48.834;10.088;2022-10-22T17:59:35;16.23;;;5.40;;
20970;SDS011;10644;48.834;10.088;2022-10-22T18:02:19;29.73;;;6.30;;
20970;SDS011;10644;48.834;10.088;2022-10-22T18:04:55;12.00;;;6.13;;
20970;SDS011;10644;48.834;10.088;2022-10-22T18:07:21;16.30;;;5.60;;
20970;SDS011;10644;48.834;10.088;2022-10-22T18:09:48;11.80;;;4.70;;
20970;SDS011;10644;48.834;10.088;2022-10-22T18:12:15;14.63;;;5.93;;
20970;SDS011;10644;48.834;10.088;2022-10-22T18:17:39;12.77;;;6.30;;
20970;SDS011;10644;48.834;10.088;2022-10-22T18:28:22;17.40;;;9.00;;
20970;SDS011;10644;48.834;10.088;2022-10-22T18:30:48;16.50;;;10.17;;
20970;SDS011;10644;48.834;10.088;2022-10-22T18:33:14;24.30;;;9.50;;
20970;SDS011;10644;48.834;10.088;2022-10-22T18:35:47;16.70;;;6.63;;
20970;SDS011;10644;48.834;10.088;2022-10-22T18:38:19;17.23;;;7.67;;
20970;SDS011;10644;48.834;10.088;2022-10-22T18:40:47;22.00;;;7.30;;
20970;SDS011;10644;48.834;10.088;2022-10-22T18:45:54;12.57;;;6.47;;
20970;SDS011;10644;48.834;10.088;2022-10-22T18:48:22;18.03;;;6.50;;
20970;SDS011;10644;48.834;10.088;2022-10-22T18:50:56;15.90;;;9.50;;
20970;SDS011;10644;48.834;10.088;2022-10-22T18:53:36;19.23;;;8.63;;
20970;SDS011;10644;48.834;10.088;2022-10-22T18:56:11;10.50;;;6.50;;
20970;SDS011;10644;48.834;10.088;2022-10-22T19:01:29;11.63;;;5.93;;
20970;SDS011;10644;48.834;10.088;2022-10-22T19:04:01;7.70;;;5.40;;
20970;SDS011;10644;48.834;10.088;2022-10-22T19:09:26;12.40;;;7.00;;
20970;SDS011;10644;48.834;10.088;2022-10-22T19:11:54;16.83;;;7.80;;
20970;SDS011;10644;48.834;10.088;2022-10-22T19:14:30;17.23;;;6.30;;
20970;SDS011;10644;48.834;10.088;2022-10-22T19:16:56;14.90;;;7.93;;
20970;SDS011;10644;48.834;10.088;2022-10-22T19:19:24;18.30;;;8.70;;
20970;SDS011;10644;48.834;10.088;2022-10-22T19:21:50;29.73;;;19.13;;
20970;SDS011;10644;48.834;10.088;2022-10-22T19:24:22;16.30;;;10.93;;
20970;SDS011;10644;48.834;10.088;2022-10-22T19:29:25;16.73;;;6.23;;
20970;SDS011;10644;48.834;10.088;2022-10-22T19:32:02;18.97;;;6.53;;
20970;SDS011;10644;48.834;10.088;2022-10-22T19:34:28;10.80;;;4.53;;
20970;SDS011;10644;48.834;10.088;2022-10-22T19:36:55;13.87;;;6.10;;
20970;SDS011;10644;48.834;10.088;2022-10-22T19:44:39;16.13;;;7.40;;
20970;SDS011;10644;48.834;10.088;2022-10-22T19:47:10;14.40;;;6.80;;
20970;SDS011;10644;48.834;10.088;2022-10-22T19:52:15;16.50;;;7.20;;
20970;SDS011;10644;48.834;10.088;2022-10-22T19:57:44;11.67;;;5.80;;
20970;SDS011;10644;48.834;10.088;2022-10-22T20:00:09;13.43;;;7.10;;
20970;SDS011;10644;48.834;10.088;2022-10-22T20:02:38;11.40;;;6.90;;
20970;SDS011;10644;48.834;10.088;2022-10-22T20:05:05;8.13;;;5.73;;
20970;SDS011;10644;48.834;10.088;2022-10-22T20:07:42;8.30;;;5.30;;
20970;SDS011;10644;48.834;10.088;2022-10-22T20:10:08;12.27;;;6.33;;
20970;SDS011;10644;48.834;10.088;2022-10-22T20:12:50;17.33;;;6.07;;
20970;SDS011;10644;48.834;10.088;2022-10-22T20:17:52;12.37;;;6.10;;
20970;SDS011;10644;48.834;10.088;2022-10-22T20:20:18;15.70;;;6.13;;
20970;SDS011;10644;48.834;10.088;2022-10-22T20:22:43;11.67;;;5.37;;
20970;SDS011;10644;48.834;10.088;2022-10-22T20:25:16;11.80;;;4.83;;
20970;SDS011;10644;48.834;10.088;2022-10-22T20:27:47;13.10;;;5.70;;
20970;SDS011;10644;48.834;10.088;2022-10-22T20:30:30;10.93;;;5.60;;
20970;SDS011;10644;48.834;10.088;2022-10-22T20:35:59;11.20;;;5.90;;
20970;SDS011;10644;48.834;10.088;2022-10-22T20:38:25;14.70;;;7.40;;
20970;SDS011;10644;48.834;10.088;2022-10-22T20:41:04;6.90;;;5.00;;
20970;SDS011;10644;48.834;10.088;2022-10-22T20:43:35;9.43;;;5.80;;
20970;SDS011;10644;48.834;10.088;2022-10-22T20:46:13;14.63;;;6.73;;
20970;SDS011;10644;48.834;10.088;2022-10-22T20:51:40;17.50;;;5.70;;
20970;SDS011;10644;48.834;10.088;2022-10-22T20:54:19;10.50;;;5.13;;
20970;SDS011;10644;48.834;10.088;2022-10-22T20:59:36;14.83;;;6.87;;
20970;SDS011;10644;48.834;10.088;2022-10-22T21:02:07;12.33;;;5.80;;
20970;SDS011;10644;48.834;10.088;2022-10-22T21:04:37;12.03;;;6.37;;
20970;SDS011;10644;48.834;10.088;2022-10-22T21:07:10;11.77;;;6.00;;
20970;SDS011;10644;48.834;10.088;2022-10-22T21:09:35;9.83;;;6.00;;
20970;SDS011;10644;48.834;10.088;2022-10-22T21:12:13;14.53;;;6.73;;
20970;SDS011;10644;48.834;10.088;2022-10-22T21:14:40;10.00;;;6.60;;
20970;SDS011;10644;48.834;10.088;2022-10-22T21:17:07;9.90;;;5.70;;
20970;SDS011;10644;48.834;10.088;2022-10-22T21:22:35;13.63;;;5.73;;
20970;SDS011;10644;48.834;10.088;2022-10-22T21:27:35;13.97;;;4.60;;
20970;SDS011;10644;48.834;10.088;2022-10-22T21:30:01;15.33;;;6.23;;
20970;SDS011;10644;48.834;10.088;2022-10-22T21:32:43;28.83;;;6.83;;
20970;SDS011;10644;48.834;10.088;2022-10-22T21:35:14;12.47;;;5.20;;
20970;SDS011;10644;48.834;10.088;2022-10-22T21:37:41;11.50;;;5.20;;
20970;SDS011;10644;48.834;10.088;2022-10-22T21:40:08;16.73;;;4.37;;
20970;SDS011;10644;48.834;10.088;2022-10-22T21:51:37;8.73;;;5.00;;
20970;SDS011;10644;48.834;10.088;2022-10-22T21:57:40;9.10;;;5.40;;
20970;SDS011;10644;48.834;10.088;2022-10-22T22:03:33;11.87;;;5.87;;
20970;SDS011;10644;48.834;10.088;2022-10-22T22:06:00;18.97;;;5.70;;
20970;SDS011;10644;48.834;10.088;2022-10-22T22:08:33;8.43;;;5.77;;
20970;SDS011;10644;48.834;10.088;2022-10-22T22:10:59;13.53;;;5.57;;
20970;SDS011;10644;48.834;10.088;2022-10-22T22:13:34;10.40;;;5.90;;
20970;SDS011;10644;48.834;10.088;2022-10-22T22:16:01;10.93;;;5.77;;